الصفحة الرئيسية
METAR-TAF:

METAR-TAF

مطار :

بالما دي مايوركا, إسبانيا

مطار بالما دي مايوركا

دائرة عرض: 39-33N, خط طول: 002-44E, ارتفاع: 4 متر

مراقبة الطقس الحالي

تاريخ ووقت الإصدار 14 دقيقة قبل الساعة 03:30UTC
رياح هادئة
درجة الحرارة 7°درجة مئوية
الرطوبة 93%
ضغط 1019 hPa
الرؤية 10 كم أو أكثر
غيوم قليلة على ارتفاع 2200 قدم

METAR: LEPA 190330Z 00000KT 9999 FEW022 07/06 Q1019 NOSIG

زمن: 04:44 (03:44 UTC)

توقعات

تاريخ ووقت الإصدار 4ساعات و 44 دقيقة قبل الساعة 23:00UTC
التوقعات صالحة من19 الساعة 00 UTC إلى 19 الساعة 24 UTC
ريح 3 عقدةمن اتجاهات متغيرة
الرؤية 10 كم أو أكثر
غيوم متفرقة على ارتفاع 2000 قدم
أصبح
من 19 الساعة 10 UTC إلى 19 الساعة 12 UTC
ريح 8 عقدة من الغرب/الجنوب الغربي
مؤقت
من 19 الساعة 14 UTC إلى 19 الساعة 18 UTC
ريح 9 عقدة من الشمال الغربي
أصبح
من 19 الساعة 18 UTC إلى 19 الساعة 20 UTC
ريح 3 عقدةمن اتجاهات متغيرة

TAF: LEPA 182300Z 1900/1924 VRB03KT 9999 SCT020 TX16/1913Z TN06/1907Z BECMG 1910/1912 24008KT TEMPO 1914/1918 31009KT BECMG 1918/1920 VRB03KT

أرصاد الطقس والتوقعات من أكثر من 4000 مطار (تقارير الطقس للمطار METAR والتنبؤ بالطقس بالمطارTAF).

المحطات المتاحة هي النقط الصفراء والحمراء على الخريطة.

حرك المؤشر فوق النقطة لمعرفة اسم المحطة.

ثم انقر لمعرفة أرصاد وتوقعات الطقس.

لتغيير الخارطة: اضغط على الأزرار الخضراء مع رمز الصليب الأسود للتكبير. على الزر الأخضر مع شرطة للتصغير، أو على الأسهم الخضراء للخرائط المجاورة.


METAR-TAF: